createdAt,value
2019-06-26T00:00:37.046Z,52.00
2019-06-26T00:03:10.006Z,52.10
2019-06-26T00:05:42.997Z,52.00
2019-06-26T00:08:16.028Z,52.00
2019-06-26T00:10:48.881Z,52.00
2019-06-26T00:13:26.670Z,52.00
2019-06-26T00:15:57.093Z,52.00
2019-06-26T00:18:30.105Z,52.00
2019-06-26T00:21:03.605Z,52.00
2019-06-26T00:23:35.221Z,52.00
2019-06-26T00:26:08.328Z,52.00
2019-06-26T00:28:41.356Z,52.10
2019-06-26T00:31:14.027Z,52.00
2019-06-26T00:33:47.034Z,52.10
2019-06-26T00:36:20.111Z,52.10
2019-06-26T00:38:53.064Z,52.00
2019-06-26T00:41:26.664Z,52.10
2019-06-26T00:43:58.286Z,52.00
2019-06-26T00:46:31.331Z,52.10
2019-06-26T00:49:04.377Z,52.10
2019-06-26T00:54:10.342Z,52.00
2019-06-26T00:56:43.507Z,52.10
2019-06-26T00:59:16.116Z,52.10
2019-06-26T01:01:50.326Z,51.70
2019-06-26T01:04:27.489Z,52.10
2019-06-26T01:07:00.273Z,52.10
2019-06-26T01:09:33.023Z,52.10
2019-06-26T01:12:06.143Z,52.30
2019-06-26T01:14:38.908Z,52.10
2019-06-26T01:17:11.646Z,52.10
2019-06-26T01:19:44.432Z,52.10
2019-06-26T01:22:17.183Z,51.70
2019-06-26T01:24:49.865Z,52.10
2019-06-26T01:27:23.013Z,52.10
2019-06-26T01:29:55.892Z,52.10
2019-06-26T01:32:28.662Z,52.20
2019-06-26T01:35:00.300Z,52.10
2019-06-26T01:37:33.592Z,52.10
2019-06-26T01:40:06.749Z,52.10
2019-06-26T01:42:39.886Z,51.70
2019-06-26T01:45:12.873Z,52.20
2019-06-26T01:47:45.693Z,52.10
2019-06-26T01:50:19.108Z,52.10
2019-06-26T01:52:52.102Z,52.10
2019-06-26T01:55:25.430Z,52.20
2019-06-26T01:57:58.408Z,52.20
2019-06-26T02:00:32.797Z,52.20
2019-06-26T02:03:05.448Z,52.20
2019-06-26T02:05:38.057Z,52.20
2019-06-26T02:08:11.287Z,52.20
2019-06-26T02:10:44.115Z,52.20
2019-06-26T02:13:17.346Z,52.20
2019-06-26T02:15:50.087Z,52.20
2019-06-26T02:18:42.936Z,52.20
2019-06-26T02:21:15.851Z,52.20
2019-06-26T02:23:48.973Z,52.20
2019-06-26T02:26:22.088Z,52.20
2019-06-26T02:28:55.096Z,52.20
2019-06-26T02:31:28.305Z,52.20
2019-06-26T02:34:01.908Z,52.20
2019-06-26T02:36:34.876Z,52.20
2019-06-26T02:39:09.037Z,52.20
2019-06-26T02:41:41.914Z,52.20
2019-06-26T02:44:14.908Z,52.20
2019-06-26T02:46:48.301Z,52.30
2019-06-26T02:49:21.013Z,52.20
2019-06-26T02:51:53.881Z,52.30
2019-06-26T02:54:27.533Z,52.20
2019-06-26T02:57:01.106Z,52.20
2019-06-26T02:59:34.050Z,51.90
2019-06-26T03:02:06.697Z,52.30
2019-06-26T03:04:38.352Z,52.30
2019-06-26T03:07:11.329Z,51.90
2019-06-26T03:09:44.417Z,52.30
2019-06-26T03:12:17.343Z,52.30
2019-06-26T03:14:50.092Z,52.30
2019-06-26T03:17:23.051Z,52.30
2019-06-26T03:19:56.322Z,52.30
2019-06-26T03:22:29.108Z,52.30
2019-06-26T03:25:02.357Z,52.30
2019-06-26T03:27:35.318Z,52.30
2019-06-26T03:30:08.286Z,52.30
2019-06-26T03:32:41.082Z,52.30
2019-06-26T03:35:26.039Z,52.30
2019-06-26T03:37:59.085Z,52.30
2019-06-26T03:40:32.044Z,52.40
2019-06-26T03:43:05.496Z,52.40
2019-06-26T03:45:38.093Z,52.40
2019-06-26T03:48:11.586Z,52.30
2019-06-26T03:50:44.098Z,52.30
2019-06-26T03:53:16.962Z,52.10
2019-06-26T03:55:50.054Z,52.30
2019-06-26T03:58:23.098Z,52.30
2019-06-26T04:00:56.101Z,52.30
2019-06-26T04:03:29.144Z,52.30
2019-06-26T04:06:02.042Z,52.30
2019-06-26T04:08:35.104Z,52.30
2019-06-26T04:11:08.101Z,52.30
2019-06-26T04:13:41.267Z,52.40
2019-06-26T04:16:14.057Z,52.30
2019-06-26T04:18:47.587Z,52.30
2019-06-26T04:21:20.353Z,52.30
2019-06-26T04:23:53.334Z,51.90
2019-06-26T04:26:26.365Z,52.30
2019-06-26T04:28:59.346Z,52.30
2019-06-26T04:31:32.137Z,52.30
2019-06-26T04:34:05.094Z,52.30
2019-06-26T04:36:38.938Z,52.30
2019-06-26T04:39:11.878Z,52.30
2019-06-26T04:41:44.445Z,52.30
2019-06-26T04:44:17.085Z,52.30
2019-06-26T04:46:50.096Z,52.30
2019-06-26T04:49:23.166Z,52.20
2019-06-26T04:51:56.919Z,52.20
2019-06-26T04:54:30.042Z,52.20
2019-06-26T04:57:03.151Z,52.30
2019-06-26T04:59:36.555Z,52.20
2019-06-26T05:02:09.358Z,52.20
2019-06-26T05:04:42.528Z,51.90
2019-06-26T05:07:15.329Z,52.20
2019-06-26T05:09:48.096Z,51.80
2019-06-26T05:12:21.432Z,52.20
2019-06-26T05:14:54.082Z,52.20
2019-06-26T05:17:27.393Z,52.20
2019-06-26T05:20:00.142Z,52.20
2019-06-26T05:22:33.125Z,52.20
2019-06-26T05:25:06.542Z,52.20
2019-06-26T05:27:39.320Z,52.20
2019-06-26T05:30:12.097Z,51.90
2019-06-26T05:32:45.152Z,52.20
2019-06-26T05:35:18.098Z,52.20
2019-06-26T05:37:51.012Z,52.20
2019-06-26T05:40:24.173Z,52.20
2019-06-26T05:42:57.089Z,52.20
2019-06-26T05:45:31.243Z,52.30
2019-06-26T05:48:04.114Z,52.20
2019-06-26T05:50:37.116Z,52.20
2019-06-26T05:53:10.121Z,52.80
2019-06-26T05:55:43.169Z,52.10
2019-06-26T05:58:15.900Z,52.00
2019-06-26T06:00:50.730Z,52.10
2019-06-26T06:03:22.968Z,52.10
2019-06-26T06:05:56.341Z,52.00
2019-06-26T06:08:29.339Z,52.00
2019-06-26T06:11:02.363Z,52.00
2019-06-26T06:13:35.663Z,52.00
2019-06-26T06:16:08.318Z,51.90
2019-06-26T06:18:44.342Z,51.50
2019-06-26T06:21:17.329Z,51.90
2019-06-26T06:23:50.441Z,51.90
2019-06-26T06:26:25.389Z,51.90
2019-06-26T06:28:58.800Z,51.90
2019-06-26T06:31:32.648Z,51.80
2019-06-26T06:34:07.108Z,51.80
2019-06-26T06:36:41.357Z,51.80
2019-06-26T06:39:15.391Z,51.80
2019-06-26T06:41:49.009Z,51.80
2019-06-26T06:44:33.112Z,51.80
2019-06-26T06:47:08.940Z,51.80
2019-06-26T06:49:41.530Z,51.80
2019-06-26T06:52:18.130Z,51.70
2019-06-26T06:54:55.162Z,51.70
2019-06-26T06:57:29.261Z,51.70
2019-06-26T07:00:28.601Z,51.80
2019-06-26T07:03:15.583Z,51.80
2019-06-26T07:05:48.326Z,51.40
2019-06-26T07:08:21.119Z,52.60
2019-06-26T07:10:54.090Z,51.80
2019-06-26T07:13:27.045Z,51.80
2019-06-26T07:16:00.334Z,51.80
2019-06-26T07:18:34.590Z,51.80
2019-06-26T07:21:08.118Z,51.80
2019-06-26T07:23:41.557Z,51.40
2019-06-26T07:26:14.424Z,51.80
2019-06-26T07:28:47.718Z,51.40
2019-06-26T07:31:20.714Z,51.80
2019-06-26T07:33:55.693Z,51.80
2019-06-26T07:36:29.430Z,51.70
2019-06-26T07:39:02.360Z,51.80
2019-06-26T07:41:35.581Z,52.50
2019-06-26T07:44:08.373Z,51.80
2019-06-26T07:46:41.455Z,51.40
2019-06-26T07:49:14.803Z,51.80
2019-06-26T07:51:51.463Z,51.70
2019-06-26T07:54:24.420Z,51.80
2019-06-26T07:57:00.508Z,51.80
2019-06-26T07:59:33.562Z,51.80
2019-06-26T08:02:05.417Z,51.80
2019-06-26T08:04:38.628Z,51.60
2019-06-26T08:07:10.778Z,51.90
2019-06-26T08:09:44.336Z,51.80
2019-06-26T08:12:26.376Z,51.80
2019-06-26T08:14:55.364Z,51.80
2019-06-26T08:17:28.467Z,51.90
2019-06-26T08:20:01.617Z,51.90
2019-06-26T08:22:33.978Z,51.90
2019-06-26T08:25:07.497Z,51.50
2019-06-26T08:27:41.143Z,51.80
2019-06-26T08:30:14.365Z,51.50
2019-06-26T08:32:47.689Z,51.90
2019-06-26T08:35:20.656Z,51.80
2019-06-26T08:38:08.837Z,51.90
2019-06-26T08:40:28.405Z,51.80
2019-06-26T08:43:01.665Z,51.90
2019-06-26T08:45:35.754Z,51.90
2019-06-26T08:48:22.833Z,51.90
2019-06-26T08:50:44.489Z,51.90
2019-06-26T08:53:17.378Z,51.90
2019-06-26T08:55:50.352Z,51.90
2019-06-26T08:58:23.339Z,51.90
2019-06-26T09:00:56.835Z,51.90
2019-06-26T09:03:30.032Z,51.90
2019-06-26T09:06:03.111Z,51.90
2019-06-26T09:08:36.116Z,51.90
2019-06-26T09:11:09.095Z,52.00
2019-06-26T09:13:42.102Z,51.90
2019-06-26T09:16:15.118Z,51.90
2019-06-26T09:18:48.116Z,51.90
2019-06-26T09:21:21.364Z,51.90
2019-06-26T09:23:54.491Z,51.90
2019-06-26T09:26:27.625Z,51.90
2019-06-26T09:28:59.284Z,51.50
2019-06-26T09:31:32.101Z,51.60
2019-06-26T09:34:05.496Z,51.90
2019-06-26T09:36:39.283Z,51.90
2019-06-26T09:39:12.874Z,51.80
2019-06-26T09:41:46.007Z,52.00
2019-06-26T09:44:21.722Z,52.00
2019-06-26T09:46:55.123Z,52.00
2019-06-26T09:49:28.060Z,52.00
2019-06-26T09:52:01.750Z,51.90
2019-06-26T09:54:34.585Z,51.90
2019-06-26T09:57:08.481Z,52.00
2019-06-26T09:59:41.321Z,52.20
2019-06-26T10:02:15.103Z,52.00
2019-06-26T10:04:48.322Z,52.00
2019-06-26T10:07:23.475Z,52.10
2019-06-26T10:09:56.501Z,52.00
2019-06-26T10:12:29.438Z,51.90
2019-06-26T10:15:05.373Z,52.00
2019-06-26T10:17:38.337Z,52.00
2019-06-26T10:20:11.471Z,52.00
2019-06-26T10:22:44.625Z,52.10
2019-06-26T10:25:17.225Z,52.60
2019-06-26T10:28:04.215Z,52.00
2019-06-26T10:30:38.992Z,52.10
2019-06-26T10:33:14.421Z,52.10
2019-06-26T10:36:00.739Z,52.10
2019-06-26T10:38:44.348Z,52.10
2019-06-26T10:41:55.200Z,52.10
2019-06-26T10:48:25.739Z,52.10
2019-06-26T10:51:01.923Z,52.20
2019-06-26T10:56:50.047Z,52.50
2019-06-26T10:59:23.378Z,52.20
2019-06-26T11:01:56.521Z,52.20
2019-06-26T11:04:29.375Z,52.20
2019-06-26T11:07:02.503Z,51.80
2019-06-26T11:09:35.599Z,52.10
2019-06-26T11:12:07.225Z,52.20
2019-06-26T11:14:40.280Z,52.20
2019-06-26T11:17:13.613Z,52.20
2019-06-26T11:19:46.252Z,52.80
2019-06-26T11:22:19.416Z,52.20
2019-06-26T11:24:52.843Z,52.20
2019-06-26T11:27:26.564Z,52.20
2019-06-26T11:29:58.957Z,52.20
2019-06-26T11:32:32.732Z,52.20
2019-06-26T11:35:07.111Z,52.20
2019-06-26T11:37:42.235Z,52.20
2019-06-26T11:40:18.825Z,52.20
2019-06-26T11:43:00.945Z,52.30
2019-06-26T11:45:35.116Z,52.20
2019-06-26T11:48:13.522Z,52.30
2019-06-26T11:53:58.991Z,52.90
2019-06-26T12:03:57.831Z,51.90
2019-06-26T12:06:31.405Z,52.40
2019-06-26T12:09:17.159Z,51.80
2019-06-26T12:12:01.801Z,52.30
2019-06-26T12:14:37.578Z,52.30
2019-06-26T12:17:12.695Z,52.20
2019-06-26T12:19:45.775Z,51.90
2019-06-26T12:22:19.304Z,52.20
2019-06-26T12:24:52.253Z,52.20
2019-06-26T12:27:28.380Z,52.20
2019-06-26T12:30:02.518Z,52.30
2019-06-26T12:32:41.902Z,52.90
2019-06-26T12:35:10.279Z,52.30
2019-06-26T12:37:43.526Z,52.30
2019-06-26T12:40:18.423Z,52.20
2019-06-26T12:42:55.587Z,52.30
2019-06-26T12:45:29.293Z,52.90
2019-06-26T12:48:06.693Z,52.30
2019-06-26T12:50:40.303Z,52.30
2019-06-26T12:53:21.002Z,52.20
2019-06-26T12:55:56.242Z,52.30
2019-06-26T12:58:41.020Z,52.30
2019-06-26T13:01:14.376Z,52.30
2019-06-26T13:03:47.096Z,52.40
2019-06-26T13:06:30.585Z,52.40
2019-06-26T13:09:18.800Z,52.30
2019-06-26T13:14:52.576Z,52.30
2019-06-26T13:17:47.982Z,53.00
2019-06-26T13:21:22.393Z,52.50
2019-06-26T13:23:55.059Z,52.40
2019-06-26T13:26:28.105Z,52.40
2019-06-26T13:29:01.104Z,52.40
2019-06-26T13:31:34.033Z,52.40
2019-06-26T13:34:06.846Z,52.40
2019-06-26T13:36:39.461Z,52.40
2019-06-26T13:39:12.042Z,52.40
2019-06-26T13:41:54.058Z,52.40
2019-06-26T13:44:26.861Z,52.40
2019-06-26T13:46:59.408Z,52.40
2019-06-26T13:49:32.111Z,52.40
2019-06-26T13:52:05.039Z,52.50
2019-06-26T13:54:37.998Z,52.50
2019-06-26T13:57:11.114Z,52.40
2019-06-26T13:59:44.070Z,52.40
2019-06-26T14:02:19.825Z,52.40
2019-06-26T14:04:51.980Z,52.40
2019-06-26T14:07:25.166Z,52.40
2019-06-26T14:09:58.104Z,52.40
2019-06-26T14:12:31.103Z,52.40
2019-06-26T14:15:04.101Z,52.40
2019-06-26T14:17:37.071Z,52.40
2019-06-26T14:20:10.786Z,52.40
2019-06-26T14:22:43.415Z,52.40
2019-06-26T14:25:16.462Z,52.40
2019-06-26T14:27:49.469Z,52.40
2019-06-26T14:30:23.413Z,52.40
2019-06-26T14:32:56.330Z,53.10
2019-06-26T14:35:29.355Z,52.40
2019-06-26T14:38:02.332Z,52.40
2019-06-26T14:40:35.337Z,52.40
2019-06-26T14:43:08.336Z,52.40
2019-06-26T14:45:41.439Z,52.40
2019-06-26T14:48:16.307Z,52.50
2019-06-26T14:50:50.141Z,52.40
2019-06-26T14:53:23.333Z,52.40
2019-06-26T14:55:59.399Z,52.40
2019-06-26T14:58:32.336Z,52.40
2019-06-26T15:01:05.378Z,52.40
2019-06-26T15:03:38.305Z,52.40
2019-06-26T15:06:16.586Z,52.40
2019-06-26T15:08:46.645Z,52.40
2019-06-26T15:11:20.369Z,52.50
2019-06-26T15:13:55.633Z,52.40
2019-06-26T15:16:30.448Z,52.40
2019-06-26T15:19:04.614Z,52.40
2019-06-26T15:21:36.684Z,52.40
2019-06-26T15:24:14.951Z,52.10
2019-06-26T15:26:48.409Z,52.40
2019-06-26T15:29:21.458Z,52.40
2019-06-26T15:31:57.451Z,52.40
2019-06-26T15:34:30.333Z,52.40
2019-06-26T15:37:03.746Z,52.40
2019-06-26T15:39:35.889Z,52.40
2019-06-26T15:42:09.334Z,52.40
2019-06-26T15:44:42.390Z,52.40
2019-06-26T15:47:17.814Z,53.10
2019-06-26T15:49:51.367Z,52.40
2019-06-26T15:52:24.404Z,52.50
2019-06-26T15:54:57.365Z,52.40
2019-06-26T15:57:30.190Z,52.40
2019-06-26T16:00:07.379Z,52.40
2019-06-26T16:02:40.524Z,52.40
2019-06-26T16:05:17.027Z,52.50
2019-06-26T16:07:53.139Z,52.10
2019-06-26T16:10:26.386Z,52.50
2019-06-26T16:12:59.650Z,52.50
2019-06-26T16:15:31.788Z,52.40
2019-06-26T16:18:43.067Z,52.40
2019-06-26T16:21:32.454Z,52.40
2019-06-26T16:24:20.273Z,52.50
2019-06-26T16:26:56.532Z,52.50
2019-06-26T16:29:39.758Z,52.50
2019-06-26T16:32:13.782Z,52.10
2019-06-26T16:34:51.556Z,52.50
2019-06-26T16:37:24.664Z,52.60
2019-06-26T16:39:57.393Z,52.10
2019-06-26T16:42:32.528Z,52.50
2019-06-26T16:45:08.311Z,52.60
2019-06-26T16:47:41.400Z,52.10
2019-06-26T16:50:15.090Z,52.50
2019-06-26T16:52:50.133Z,53.20
2019-06-26T16:55:23.788Z,52.50
2019-06-26T16:57:56.661Z,52.40
2019-06-26T17:00:29.305Z,52.50
2019-06-26T17:03:03.120Z,53.20
2019-06-26T17:05:36.349Z,52.50
2019-06-26T17:08:09.895Z,52.40
2019-06-26T17:10:43.412Z,52.50
2019-06-26T17:13:16.714Z,52.50
2019-06-26T17:15:50.082Z,52.50
2019-06-26T17:18:28.426Z,52.50
2019-06-26T17:21:02.543Z,52.50
2019-06-26T17:23:37.692Z,52.50
2019-06-26T17:26:10.302Z,52.40
2019-06-26T17:28:43.347Z,52.50
2019-06-26T17:31:27.730Z,52.50
2019-06-26T17:33:56.099Z,52.60
2019-06-26T17:36:29.775Z,52.50
2019-06-26T17:39:04.149Z,52.50
2019-06-26T17:41:37.365Z,52.50
2019-06-26T17:44:13.762Z,52.60
2019-06-26T17:46:49.944Z,52.50
2019-06-26T17:49:23.323Z,52.50
2019-06-26T17:52:01.565Z,52.50
2019-06-26T17:54:42.465Z,52.50
2019-06-26T17:57:16.448Z,52.20
2019-06-26T17:59:53.877Z,52.60
2019-06-26T18:02:30.978Z,52.50
2019-06-26T18:05:03.908Z,52.50
2019-06-26T18:07:38.045Z,52.80
2019-06-26T18:10:11.949Z,52.70
2019-06-26T18:12:44.611Z,52.70
2019-06-26T18:15:17.317Z,52.70
2019-06-26T18:17:50.912Z,52.30
2019-06-26T18:20:24.052Z,52.70
2019-06-26T18:23:07.214Z,52.60
2019-06-26T18:25:32.055Z,52.80
2019-06-26T18:28:05.022Z,52.70
2019-06-26T18:30:38.115Z,53.50
2019-06-26T18:33:11.090Z,53.80
2019-06-26T18:35:44.060Z,53.60
2019-06-26T18:38:17.017Z,53.70
2019-06-26T18:40:49.408Z,53.60
2019-06-26T18:43:21.880Z,53.50
2019-06-26T18:45:54.372Z,53.50
2019-06-26T18:48:26.883Z,53.60
2019-06-26T18:50:59.359Z,53.60
2019-06-26T18:53:32.070Z,53.70
2019-06-26T18:56:05.001Z,53.50
2019-06-26T18:58:37.793Z,53.50
2019-06-26T19:01:10.990Z,53.40
2019-06-26T19:03:44.463Z,53.30
2019-06-26T19:06:17.354Z,53.30
2019-06-26T19:08:50.072Z,53.50
2019-06-26T19:11:23.036Z,53.30
2019-06-26T19:13:56.104Z,53.50
2019-06-26T19:16:28.929Z,53.30
2019-06-26T19:19:01.465Z,53.40
2019-06-26T19:21:36.978Z,53.50
2019-06-26T19:24:10.541Z,53.40
2019-06-26T19:26:43.287Z,53.30
2019-06-26T19:29:16.455Z,53.30
2019-06-26T19:31:49.096Z,53.60
2019-06-26T19:34:21.975Z,53.70
2019-06-26T19:36:55.453Z,53.70
2019-06-26T19:39:29.095Z,53.70
2019-06-26T19:42:02.410Z,53.60
2019-06-26T19:44:35.468Z,54.30
2019-06-26T19:47:07.403Z,54.10
2019-06-26T19:49:39.029Z,54.10
2019-06-26T19:52:10.779Z,54.00
2019-06-26T19:57:26.743Z,53.90
2019-06-26T19:59:58.698Z,53.70
2019-06-26T20:02:29.442Z,53.90
2019-06-26T20:05:01.346Z,53.40
2019-06-26T20:07:33.351Z,53.70
2019-06-26T20:10:05.301Z,53.70
2019-06-26T20:12:36.991Z,53.70
2019-06-26T20:15:08.829Z,53.70
2019-06-26T20:17:40.631Z,53.70
2019-06-26T20:20:12.416Z,53.60
2019-06-26T20:22:44.302Z,53.20
2019-06-26T20:25:16.605Z,53.70
2019-06-26T20:27:48.365Z,53.60
2019-06-26T20:30:25.279Z,53.40
2019-06-26T20:32:56.952Z,53.60
2019-06-26T20:35:31.089Z,53.70
2019-06-26T20:38:02.710Z,53.50
2019-06-26T20:40:33.514Z,53.50
2019-06-26T20:43:05.734Z,53.50
2019-06-26T20:45:36.613Z,53.50
2019-06-26T20:48:08.232Z,53.50
2019-06-26T20:50:40.373Z,53.50
2019-06-26T20:53:12.042Z,53.50
2019-06-26T20:55:43.770Z,53.50
2019-06-26T20:58:15.273Z,53.50
2019-06-26T21:00:47.241Z,53.50
2019-06-26T21:03:21.202Z,53.50
2019-06-26T21:05:52.303Z,53.40
2019-06-26T21:08:23.744Z,53.40
2019-06-26T21:10:55.354Z,53.60
2019-06-26T21:13:26.985Z,53.60
2019-06-26T21:15:58.412Z,53.50
2019-06-26T21:18:29.789Z,53.50
2019-06-26T21:21:01.662Z,53.60
2019-06-26T21:23:32.449Z,53.40
2019-06-26T21:26:04.250Z,53.40
2019-06-26T21:28:35.861Z,53.40
2019-06-26T21:31:07.795Z,53.40
2019-06-26T21:33:39.379Z,53.30
2019-06-26T21:36:11.060Z,53.40
2019-06-26T21:38:42.706Z,54.00
2019-06-26T21:41:13.714Z,53.40
2019-06-26T21:43:44.538Z,53.30
2019-06-26T21:46:16.753Z,53.40
2019-06-26T21:48:47.482Z,54.00
2019-06-26T21:51:19.227Z,53.40
2019-06-26T21:53:50.777Z,53.40
2019-06-26T21:56:22.686Z,53.40
2019-06-26T21:58:53.475Z,53.40
2019-06-26T22:01:25.208Z,53.00
2019-06-26T22:03:56.814Z,53.50
2019-06-26T22:06:28.755Z,53.50
2019-06-26T22:08:59.582Z,53.40
2019-06-26T22:11:31.359Z,53.50
2019-06-26T22:14:03.054Z,53.00
2019-06-26T22:16:34.732Z,53.60
2019-06-26T22:19:05.486Z,53.50
2019-06-26T22:21:37.298Z,53.50
2019-06-26T22:24:08.801Z,53.50
2019-06-26T22:26:40.729Z,53.50
2019-06-26T22:29:11.504Z,53.30
2019-06-26T22:31:43.647Z,53.40
2019-06-26T22:34:15.573Z,53.40
2019-06-26T22:36:51.777Z,53.10
2019-06-26T22:39:21.477Z,53.00
2019-06-26T22:41:53.053Z,53.40
2019-06-26T22:44:24.880Z,53.40
2019-06-26T22:46:56.773Z,53.40
2019-06-26T22:49:28.459Z,53.40
2019-06-26T22:52:00.298Z,54.10
2019-06-26T22:54:31.883Z,53.40
2019-06-26T22:57:03.882Z,53.50
2019-06-26T22:59:35.389Z,53.50
2019-06-26T23:02:07.157Z,53.40
2019-06-26T23:04:39.300Z,53.40
2019-06-26T23:07:11.375Z,53.40
2019-06-26T23:09:43.419Z,53.50
2019-06-26T23:12:15.294Z,53.40
2019-06-26T23:14:46.846Z,53.50
2019-06-26T23:17:18.366Z,53.40
2019-06-26T23:19:50.364Z,53.40
2019-06-26T23:22:22.657Z,53.40
2019-06-26T23:24:54.299Z,53.40
2019-06-26T23:27:26.341Z,53.40
2019-06-26T23:29:58.143Z,53.40
2019-06-26T23:32:29.925Z,53.40
2019-06-26T23:35:01.977Z,53.40
2019-06-26T23:37:33.722Z,53.40
2019-06-26T23:40:04.465Z,53.40
2019-06-26T23:42:36.306Z,53.40
2019-06-26T23:45:08.417Z,53.40
2019-06-26T23:47:40.416Z,53.40
2019-06-26T23:50:12.396Z,53.40
2019-06-26T23:52:44.419Z,53.40
2019-06-26T23:55:15.863Z,53.40
2019-06-26T23:57:58.417Z,53.40
